createdAt,value
2019-05-16T00:00:05.836Z,1014.86
2019-05-16T00:01:05.821Z,1014.89
2019-05-16T00:02:08.074Z,1014.81
2019-05-16T00:03:07.906Z,1014.88
2019-05-16T00:04:05.786Z,1014.82
2019-05-16T00:05:08.232Z,1014.86
2019-05-16T00:06:05.765Z,1014.85
2019-05-16T00:07:07.898Z,1014.83
2019-05-16T00:08:05.749Z,1014.82
2019-05-16T00:09:07.875Z,1014.83
2019-05-16T00:10:05.719Z,1014.78
2019-05-16T00:11:05.711Z,1014.78
2019-05-16T00:12:05.697Z,1014.75
2019-05-16T00:13:08.363Z,1014.72
2019-05-16T00:14:05.700Z,1014.74
2019-05-16T00:15:05.663Z,1014.69
2019-05-16T00:16:07.850Z,1014.72
2019-05-16T00:17:08.191Z,1014.67
2019-05-16T00:18:05.630Z,1014.72
2019-05-16T00:19:05.643Z,1014.67
2019-05-16T00:20:05.617Z,1014.70
2019-05-16T00:21:05.595Z,1014.65
2019-05-16T00:22:05.587Z,1014.65
2019-05-16T00:23:07.774Z,1014.68
2019-05-16T00:24:05.587Z,1014.66
2019-05-16T00:25:05.550Z,1014.64
2019-05-16T00:26:07.702Z,1014.63
2019-05-16T00:27:05.527Z,1014.58
2019-05-16T00:28:05.517Z,1014.63
2019-05-16T00:29:07.881Z,1014.59
2019-05-16T00:30:05.495Z,1014.62
2019-05-16T00:31:05.483Z,1014.59
2019-05-16T00:32:05.472Z,1014.63
2019-05-16T00:33:08.143Z,1014.60
2019-05-16T00:34:05.475Z,1014.60
2019-05-16T00:35:05.444Z,1014.58
2019-05-16T00:36:06.028Z,1014.57
2019-05-16T00:37:05.418Z,1014.54
2019-05-16T00:38:05.406Z,1014.50
2019-05-16T00:39:05.420Z,1014.48
2019-05-16T00:40:05.390Z,1014.52
2019-05-16T00:41:05.369Z,1014.50
2019-05-16T00:42:05.359Z,1014.53
2019-05-16T00:43:05.347Z,1014.45
2019-05-16T00:44:05.362Z,1014.48
2019-05-16T00:45:05.325Z,1014.39
2019-05-16T00:46:05.318Z,1014.38
2019-05-16T00:47:05.304Z,1014.47
2019-05-16T00:48:05.301Z,1014.41
2019-05-16T00:49:05.309Z,1014.46
2019-05-16T00:50:05.268Z,1014.44
2019-05-16T00:51:07.665Z,1014.43
2019-05-16T00:52:05.249Z,1014.45
2019-05-16T00:53:05.235Z,1014.44
2019-05-16T00:54:05.251Z,1014.44
2019-05-16T00:55:05.213Z,1014.40
2019-05-16T00:56:05.203Z,1014.41
2019-05-16T00:57:05.192Z,1014.41
2019-05-16T00:58:05.183Z,1014.44
2019-05-16T00:59:05.191Z,1014.40
2019-05-16T01:00:05.155Z,1014.47
2019-05-16T01:01:05.145Z,1014.37
2019-05-16T01:02:05.134Z,1014.44
2019-05-16T01:03:05.122Z,1014.37
2019-05-16T01:04:05.135Z,1014.38
2019-05-16T01:05:05.102Z,1014.38
2019-05-16T01:06:15.649Z,1014.31
2019-05-16T01:07:08.239Z,1014.33
2019-05-16T01:08:05.065Z,1014.35
2019-05-16T01:09:05.056Z,1014.34
2019-05-16T01:10:05.069Z,1014.35
2019-05-16T01:11:05.033Z,1014.39
2019-05-16T01:12:05.023Z,1014.33
2019-05-16T01:13:05.013Z,1014.34
2019-05-16T01:14:04.998Z,1014.35
2019-05-16T01:15:05.015Z,1014.33
2019-05-16T01:16:04.976Z,1014.26
2019-05-16T01:17:04.968Z,1014.26
2019-05-16T01:18:04.954Z,1014.24
2019-05-16T01:19:04.942Z,1014.23
2019-05-16T01:20:04.958Z,1014.21
2019-05-16T01:21:04.926Z,1014.16
2019-05-16T01:22:04.910Z,1014.15
2019-05-16T01:23:04.903Z,1014.20
2019-05-16T01:24:04.889Z,1014.11
2019-05-16T01:25:04.902Z,1014.14
2019-05-16T01:26:04.863Z,1014.11
2019-05-16T01:27:04.863Z,1014.09
2019-05-16T01:28:04.860Z,1014.15
2019-05-16T01:29:04.832Z,1014.12
2019-05-16T01:30:04.845Z,1014.12
2019-05-16T01:31:04.809Z,1014.06
2019-05-16T01:32:04.797Z,1014.10
2019-05-16T01:33:04.788Z,1014.09
2019-05-16T01:34:04.776Z,1014.05
2019-05-16T01:35:04.787Z,1014.05
2019-05-16T01:36:04.752Z,1014.09
2019-05-16T01:37:04.741Z,1014.02
2019-05-16T01:38:04.730Z,1014.02
2019-05-16T01:39:04.734Z,1014.06
2019-05-16T01:40:04.733Z,1014.04
2019-05-16T01:41:04.696Z,1014.01
2019-05-16T01:42:04.683Z,1013.96
2019-05-16T01:43:04.673Z,1013.98
2019-05-16T01:44:04.662Z,1014.00
2019-05-16T01:45:04.676Z,1013.95
2019-05-16T01:46:04.640Z,1014.05
2019-05-16T01:47:04.634Z,1014.00
2019-05-16T01:48:04.617Z,1013.98
2019-05-16T01:49:04.607Z,1013.97
2019-05-16T01:50:04.596Z,1013.93
2019-05-16T01:51:04.612Z,1013.92
2019-05-16T01:52:04.573Z,1013.91
2019-05-16T01:53:04.560Z,1013.93
2019-05-16T01:54:04.553Z,1013.91
2019-05-16T01:55:04.539Z,1013.91
2019-05-16T01:56:04.551Z,1013.87
2019-05-16T01:57:04.519Z,1013.91
2019-05-16T01:58:04.506Z,1013.91
2019-05-16T01:59:04.495Z,1013.85
2019-05-16T02:00:04.482Z,1013.88
2019-05-16T02:01:12.159Z,1013.91
2019-05-16T02:02:05.458Z,1013.92
2019-05-16T02:03:04.448Z,1013.91
2019-05-16T02:04:04.438Z,1013.92
2019-05-16T02:05:04.428Z,1013.89
2019-05-16T02:06:04.444Z,1013.87
2019-05-16T02:07:04.403Z,1013.89
2019-05-16T02:08:04.398Z,1013.89
2019-05-16T02:09:04.380Z,1013.90
2019-05-16T02:10:04.371Z,1013.88
2019-05-16T02:11:04.382Z,1013.89
2019-05-16T02:12:04.346Z,1013.89
2019-05-16T02:13:04.334Z,1013.89
2019-05-16T02:14:04.326Z,1013.86
2019-05-16T02:15:04.312Z,1013.91
2019-05-16T02:16:04.326Z,1013.83
2019-05-16T02:17:04.289Z,1013.83
2019-05-16T02:18:04.276Z,1013.81
2019-05-16T02:19:04.263Z,1013.87
2019-05-16T02:20:04.254Z,1013.79
2019-05-16T02:21:04.244Z,1013.80
2019-05-16T02:22:04.256Z,1013.82
2019-05-16T02:23:04.222Z,1013.79
2019-05-16T02:24:04.207Z,1013.78
2019-05-16T02:25:04.195Z,1013.72
2019-05-16T02:26:04.210Z,1013.71
2019-05-16T02:27:04.182Z,1013.68
2019-05-16T02:28:04.162Z,1013.68
2019-05-16T02:29:04.157Z,1013.69
2019-05-16T02:30:04.141Z,1013.65
2019-05-16T02:31:04.138Z,1013.65
2019-05-16T02:32:04.143Z,1013.68
2019-05-16T02:33:04.112Z,1013.67
2019-05-16T02:34:04.790Z,1013.69
2019-05-16T02:35:04.084Z,1013.64
2019-05-16T02:36:04.073Z,1013.63
2019-05-16T02:37:23.510Z,1013.67
2019-05-16T02:38:05.050Z,1013.62
2019-05-16T02:39:04.041Z,1013.61
2019-05-16T02:40:04.029Z,1013.65
2019-05-16T02:41:04.026Z,1013.62
2019-05-16T02:42:04.029Z,1013.63
2019-05-16T02:43:03.997Z,1013.60
2019-05-16T02:44:03.981Z,1013.57
2019-05-16T02:45:03.969Z,1013.58
2019-05-16T02:46:03.959Z,1013.62
2019-05-16T02:47:03.976Z,1013.60
2019-05-16T02:48:03.934Z,1013.61
2019-05-16T02:49:03.924Z,1013.59
2019-05-16T02:50:03.913Z,1013.53
2019-05-16T02:51:03.902Z,1013.57
2019-05-16T02:52:03.918Z,1013.57
2019-05-16T02:53:03.877Z,1013.57
2019-05-16T02:54:03.872Z,1013.59
2019-05-16T02:55:03.854Z,1013.62
2019-05-16T02:56:03.848Z,1013.55
2019-05-16T02:57:03.858Z,1013.55
2019-05-16T02:58:03.825Z,1013.50
2019-05-16T02:59:03.809Z,1013.55
2019-05-16T03:00:03.804Z,1013.56
2019-05-16T03:01:03.794Z,1013.50
2019-05-16T03:02:03.804Z,1013.54
2019-05-16T03:03:03.765Z,1013.57
2019-05-16T03:04:03.754Z,1013.49
2019-05-16T03:05:03.755Z,1013.46
2019-05-16T03:06:03.733Z,1013.47
2019-05-16T03:07:03.754Z,1013.50
2019-05-16T03:08:03.743Z,1013.49
2019-05-16T03:09:05.370Z,1013.47
2019-05-16T03:10:03.682Z,1013.42
2019-05-16T03:11:03.674Z,1013.41
2019-05-16T03:12:03.686Z,1013.40
2019-05-16T03:13:03.649Z,1013.43
2019-05-16T03:14:03.681Z,1013.39
2019-05-16T03:15:03.642Z,1013.39
2019-05-16T03:16:03.615Z,1013.41
2019-05-16T03:17:03.605Z,1013.37
2019-05-16T03:18:04.288Z,1013.37
2019-05-16T03:19:03.582Z,1013.38
2019-05-16T03:20:03.574Z,1013.37
2019-05-16T03:21:03.558Z,1013.34
2019-05-16T03:22:03.562Z,1013.41
2019-05-16T03:23:03.574Z,1013.33
2019-05-16T03:24:03.526Z,1013.32
2019-05-16T03:25:03.522Z,1013.30
2019-05-16T03:26:03.505Z,1013.27
2019-05-16T03:27:03.494Z,1013.28
2019-05-16T03:28:03.509Z,1013.21
2019-05-16T03:29:03.466Z,1013.21
2019-05-16T03:30:03.460Z,1013.23
2019-05-16T03:31:05.749Z,1013.23
2019-05-16T03:32:03.705Z,1013.20
2019-05-16T03:33:05.311Z,1013.22
2019-05-16T03:34:07.577Z,1013.24
2019-05-16T03:35:05.445Z,1013.23
2019-05-16T03:36:05.030Z,1013.21
2019-05-16T03:37:04.787Z,1013.19
2019-05-16T03:38:05.325Z,1013.20
2019-05-16T03:39:03.356Z,1013.18
2019-05-16T03:40:03.350Z,1013.22
2019-05-16T03:41:03.333Z,1013.17
2019-05-16T03:42:03.318Z,1013.24
2019-05-16T03:43:03.339Z,1013.23
2019-05-16T03:44:03.299Z,1013.19
2019-05-16T03:45:03.286Z,1013.17
2019-05-16T03:46:03.280Z,1013.18
2019-05-16T03:47:03.279Z,1013.17
2019-05-16T03:48:03.617Z,1013.20
2019-05-16T03:49:03.244Z,1013.20
2019-05-16T03:50:03.230Z,1013.19
2019-05-16T03:51:03.219Z,1013.20
2019-05-16T03:52:03.209Z,1013.19
2019-05-16T03:53:03.222Z,1013.20
2019-05-16T03:54:03.183Z,1013.16
2019-05-16T03:55:03.177Z,1013.17
2019-05-16T03:56:03.170Z,1013.18
2019-05-16T03:57:03.150Z,1013.17
2019-05-16T03:58:03.163Z,1013.18
2019-05-16T03:59:03.127Z,1013.15
2019-05-16T04:00:03.117Z,1013.13
2019-05-16T04:01:03.125Z,1013.18
2019-05-16T04:02:03.097Z,1013.14
2019-05-16T04:03:03.086Z,1013.14
2019-05-16T04:04:03.097Z,1013.12
2019-05-16T04:05:03.068Z,1013.11
2019-05-16T04:06:03.061Z,1013.10
2019-05-16T04:07:03.037Z,1013.17
2019-05-16T04:08:16.773Z,1013.10
2019-05-16T04:09:04.040Z,1013.12
2019-05-16T04:10:03.006Z,1013.15
2019-05-16T04:11:03.002Z,1013.13
2019-05-16T04:12:03.015Z,1013.13
2019-05-16T04:13:02.969Z,1013.14
2019-05-16T04:14:02.982Z,1013.11
2019-05-16T04:15:02.962Z,1013.10
2019-05-16T04:16:02.938Z,1013.15
2019-05-16T04:17:02.925Z,1013.12
2019-05-16T04:18:02.917Z,1013.14
2019-05-16T04:19:02.934Z,1013.10
2019-05-16T04:20:02.890Z,1013.10
2019-05-16T04:21:02.878Z,1013.10
2019-05-16T04:22:02.870Z,1013.10
2019-05-16T04:23:02.855Z,1013.11
2019-05-16T04:24:02.873Z,1013.12
2019-05-16T04:25:02.833Z,1013.09
2019-05-16T04:26:02.823Z,1013.09
2019-05-16T04:27:02.812Z,1013.02
2019-05-16T04:28:02.800Z,1013.04
2019-05-16T04:29:02.816Z,1013.04
2019-05-16T04:30:02.779Z,1013.04
2019-05-16T04:31:02.771Z,1013.05
2019-05-16T04:32:02.756Z,1013.04
2019-05-16T04:33:02.751Z,1013.02
2019-05-16T04:34:02.775Z,1013.00
2019-05-16T04:35:02.940Z,1013.02
2019-05-16T04:36:02.711Z,1013.03
2019-05-16T04:37:02.699Z,1013.03
2019-05-16T04:38:02.691Z,1013.02
2019-05-16T04:39:02.706Z,1013.03
2019-05-16T04:40:02.666Z,1013.05
2019-05-16T04:41:02.655Z,1013.07
2019-05-16T04:42:02.644Z,1013.02
2019-05-16T04:43:02.644Z,1013.01
2019-05-16T04:44:04.963Z,1012.99
2019-05-16T04:45:02.608Z,1012.98
2019-05-16T04:46:02.614Z,1013.04
2019-05-16T04:47:02.591Z,1012.96
2019-05-16T04:48:02.585Z,1012.99
2019-05-16T04:49:02.590Z,1012.95
2019-05-16T04:50:02.563Z,1012.98
2019-05-16T04:51:02.546Z,1012.89
2019-05-16T04:52:02.534Z,1012.90
2019-05-16T04:53:02.524Z,1012.94
2019-05-16T04:54:06.768Z,1012.92
2019-05-16T04:55:02.497Z,1012.92
2019-05-16T04:56:02.487Z,1012.94
2019-05-16T04:57:02.480Z,1012.92
2019-05-16T04:58:02.463Z,1012.95
2019-05-16T04:59:02.465Z,1012.93
2019-05-16T05:00:02.821Z,1012.95
2019-05-16T05:01:02.431Z,1012.89
2019-05-16T05:02:02.508Z,1012.95
2019-05-16T05:03:02.406Z,1012.91
2019-05-16T05:04:10.708Z,1012.91
2019-05-16T05:05:03.414Z,1012.91
2019-05-16T05:06:02.377Z,1012.91
2019-05-16T05:07:02.364Z,1012.85
2019-05-16T05:08:02.352Z,1012.88
2019-05-16T05:09:03.373Z,1012.88
2019-05-16T05:10:02.362Z,1012.87
2019-05-16T05:11:02.325Z,1012.89
2019-05-16T05:12:04.540Z,1012.86
2019-05-16T05:13:02.297Z,1012.88
2019-05-16T05:14:02.297Z,1012.85
2019-05-16T05:15:02.304Z,1012.80
2019-05-16T05:16:02.260Z,1012.84
2019-05-16T05:17:05.211Z,1012.85
2019-05-16T05:18:02.244Z,1012.78
2019-05-16T05:19:02.226Z,1012.81
2019-05-16T05:20:02.241Z,1012.78
2019-05-16T05:21:02.206Z,1012.80
2019-05-16T05:22:02.254Z,1012.81
2019-05-16T05:23:02.180Z,1012.83
2019-05-16T05:24:02.172Z,1012.83
2019-05-16T05:25:02.183Z,1012.81
2019-05-16T05:26:02.156Z,1012.82
2019-05-16T05:27:02.135Z,1012.80
2019-05-16T05:28:02.133Z,1012.78
2019-05-16T05:29:02.113Z,1012.80
2019-05-16T05:30:02.128Z,1012.76
2019-05-16T05:31:02.093Z,1012.77
2019-05-16T05:32:04.226Z,1012.81
2019-05-16T05:33:02.067Z,1012.76
2019-05-16T05:34:02.056Z,1012.77
2019-05-16T05:35:02.078Z,1012.79
2019-05-16T05:36:02.036Z,1012.74
2019-05-16T05:37:02.024Z,1012.74
2019-05-16T05:38:02.010Z,1012.75
2019-05-16T05:39:11.809Z,1012.71
2019-05-16T05:40:03.013Z,1012.75
2019-05-16T05:41:02.001Z,1012.79
2019-05-16T05:42:01.969Z,1012.75
2019-05-16T05:43:01.974Z,1012.74
2019-05-16T05:44:01.945Z,1012.75
2019-05-16T05:45:01.957Z,1012.75
2019-05-16T05:46:01.922Z,1012.74
2019-05-16T05:47:01.915Z,1012.73
2019-05-16T05:48:01.899Z,1012.72
2019-05-16T05:49:01.888Z,1012.72
2019-05-16T05:50:01.913Z,1012.77
2019-05-16T05:51:01.864Z,1012.73
2019-05-16T05:52:01.854Z,1012.74
2019-05-16T05:53:01.842Z,1012.75
2019-05-16T05:54:01.835Z,1012.75
2019-05-16T05:55:01.822Z,1012.73
2019-05-16T05:56:01.833Z,1012.71
2019-05-16T05:57:01.797Z,1012.70
2019-05-16T05:58:01.785Z,1012.76
2019-05-16T05:59:01.775Z,1012.78
2019-05-16T06:00:01.762Z,1012.78
2019-05-16T06:01:01.781Z,1012.77
2019-05-16T06:02:01.758Z,1012.78
2019-05-16T06:03:01.730Z,1012.78
2019-05-16T06:04:01.768Z,1012.75
2019-05-16T06:05:01.707Z,1012.77
2019-05-16T06:06:01.721Z,1012.72
2019-05-16T06:07:01.686Z,1012.75
2019-05-16T06:08:01.677Z,1012.74
2019-05-16T06:09:01.663Z,1012.75
2019-05-16T06:10:01.650Z,1012.73
2019-05-16T06:11:01.664Z,1012.73
2019-05-16T06:12:01.662Z,1012.76
2019-05-16T06:13:01.616Z,1012.71
2019-05-16T06:14:01.606Z,1012.70
2019-05-16T06:15:07.534Z,1012.71
2019-05-16T06:16:02.605Z,1012.75
2019-05-16T06:17:01.571Z,1012.76
2019-05-16T06:18:01.561Z,1012.76
2019-05-16T06:19:01.550Z,1012.78
2019-05-16T06:20:01.536Z,1012.76
2019-05-16T06:21:01.551Z,1012.76
2019-05-16T06:22:01.719Z,1012.70
2019-05-16T06:23:01.501Z,1012.67
2019-05-16T06:24:01.491Z,1012.65
2019-05-16T06:25:01.479Z,1012.70
2019-05-16T06:26:01.477Z,1012.64
2019-05-16T06:27:01.485Z,1012.64
2019-05-16T06:28:01.447Z,1012.64
2019-05-16T06:29:01.438Z,1012.60
2019-05-16T06:30:01.427Z,1012.62
2019-05-16T06:31:02.478Z,1012.66
2019-05-16T06:32:01.402Z,1012.66
2019-05-16T06:33:01.390Z,1012.68
2019-05-16T06:34:08.439Z,1012.62
2019-05-16T06:35:02.364Z,1012.62
2019-05-16T06:36:01.357Z,1012.65
2019-05-16T06:37:01.368Z,1012.64
2019-05-16T06:38:01.331Z,1012.63
2019-05-16T06:39:01.324Z,1012.67
2019-05-16T06:40:01.315Z,1012.65
2019-05-16T06:41:01.298Z,1012.64
2019-05-16T06:42:01.345Z,1012.63
2019-05-16T06:43:01.277Z,1012.59
2019-05-16T06:44:01.268Z,1012.58
2019-05-16T06:45:01.287Z,1012.55
2019-05-16T06:46:01.241Z,1012.57
2019-05-16T06:47:15.967Z,1012.55
2019-05-16T06:48:02.220Z,1012.54
2019-05-16T06:49:01.210Z,1012.55
2019-05-16T06:50:01.198Z,1012.55
2019-05-16T06:51:02.948Z,1012.57
2019-05-16T06:52:01.213Z,1012.53
2019-05-16T06:53:01.163Z,1012.58
2019-05-16T06:54:01.154Z,1012.52
2019-05-16T06:55:01.141Z,1012.50
2019-05-16T06:56:01.128Z,1012.53
2019-05-16T06:57:01.141Z,1012.53
2019-05-16T06:58:01.163Z,1012.52
2019-05-16T06:59:01.114Z,1012.54
2019-05-16T07:00:01.085Z,1012.43
2019-05-16T07:01:03.689Z,1012.50
2019-05-16T07:02:01.085Z,1012.46
2019-05-16T07:03:01.050Z,1012.45
2019-05-16T07:04:01.039Z,1012.41
2019-05-16T07:05:01.296Z,1012.42
2019-05-16T07:06:01.015Z,1012.48
2019-05-16T07:07:03.024Z,1012.42
2019-05-16T07:08:00.992Z,1012.42
2019-05-16T07:09:01.200Z,1012.41
2019-05-16T07:10:04.489Z,1012.41
2019-05-16T07:11:00.960Z,1012.36
2019-05-16T07:12:00.975Z,1012.33
2019-05-16T07:13:00.942Z,1012.36
2019-05-16T07:14:00.926Z,1012.26
2019-05-16T07:15:02.058Z,1012.33
2019-05-16T07:16:00.909Z,1012.26
2019-05-16T07:17:00.927Z,1012.29
2019-05-16T07:18:00.879Z,1012.28
2019-05-16T07:19:00.933Z,1012.27
2019-05-16T07:20:00.967Z,1012.30
2019-05-16T07:21:00.860Z,1012.27
2019-05-16T07:22:00.836Z,1012.25
2019-05-16T07:23:00.848Z,1012.26
2019-05-16T07:24:00.813Z,1012.28
2019-05-16T07:25:00.811Z,1012.30
2019-05-16T07:26:01.004Z,1012.25
2019-05-16T07:27:00.779Z,1012.23
2019-05-16T07:28:00.824Z,1012.29
2019-05-16T07:29:00.757Z,1012.25
2019-05-16T07:30:01.389Z,1012.18
2019-05-16T07:31:14.514Z,1012.23
2019-05-16T07:32:01.719Z,1012.26
2019-05-16T07:33:00.735Z,1012.24
2019-05-16T07:34:00.983Z,1012.21
2019-05-16T07:35:00.703Z,1012.20
2019-05-16T07:36:00.676Z,1012.21
2019-05-16T07:37:00.670Z,1012.19
2019-05-16T07:38:00.677Z,1012.14
2019-05-16T07:39:00.641Z,1012.14
2019-05-16T07:40:15.614Z,1012.12
2019-05-16T07:41:01.617Z,1012.11
2019-05-16T07:42:00.608Z,1012.14
2019-05-16T07:43:00.622Z,1012.11
2019-05-16T07:44:01.083Z,1012.00
2019-05-16T07:45:00.837Z,1012.04
2019-05-16T07:46:00.790Z,1011.96
2019-05-16T07:47:01.112Z,1012.01
2019-05-16T07:48:00.566Z,1012.03
2019-05-16T07:49:01.341Z,1012.05
2019-05-16T07:50:00.518Z,1012.02
2019-05-16T07:51:00.714Z,1012.00
2019-05-16T07:52:00.735Z,1012.12
2019-05-16T07:53:00.507Z,1012.06
2019-05-16T07:54:00.473Z,1012.04
2019-05-16T07:55:03.861Z,1012.03
2019-05-16T07:56:00.455Z,1012.00
2019-05-16T07:57:11.339Z,1012.01
2019-05-16T07:58:01.451Z,1011.99
2019-05-16T07:59:00.977Z,1012.01
2019-05-16T08:00:00.410Z,1011.98
2019-05-16T08:01:04.555Z,1011.97
2019-05-16T08:02:01.379Z,1011.90
2019-05-16T08:03:00.402Z,1011.95
2019-05-16T08:04:00.360Z,1011.95
2019-05-16T08:05:00.880Z,1011.92
2019-05-16T08:06:01.646Z,1011.93
2019-05-16T08:07:00.794Z,1011.89
2019-05-16T08:08:00.314Z,1011.89
2019-05-16T08:09:00.408Z,1011.93
2019-05-16T08:10:00.290Z,1011.91
2019-05-16T08:11:01.400Z,1011.88
2019-05-16T08:12:01.862Z,1011.86
2019-05-16T08:13:03.283Z,1011.89
2019-05-16T08:14:01.018Z,1011.87
2019-05-16T08:15:00.873Z,1011.90
2019-05-16T08:16:01.213Z,1011.86
2019-05-16T08:17:01.178Z,1011.82
2019-05-16T08:18:03.278Z,1011.77
2019-05-16T08:19:00.917Z,1011.79
2019-05-16T08:20:00.456Z,1011.76
2019-05-16T08:21:01.089Z,1011.76
2019-05-16T08:22:01.338Z,1011.73
2019-05-16T08:23:00.849Z,1011.75
2019-05-16T08:25:01.117Z,1011.73
2019-05-16T08:27:01.405Z,1011.65
2019-05-16T08:28:01.185Z,1011.65
2019-05-16T08:29:01.958Z,1011.63
2019-05-16T08:30:02.552Z,1011.62
2019-05-16T08:31:00.826Z,1011.64
2019-05-16T08:32:02.071Z,1011.67
2019-05-16T08:33:02.206Z,1011.62
2019-05-16T08:34:00.956Z,1011.65
2019-05-16T08:35:01.123Z,1011.62
2019-05-16T08:36:04.821Z,1011.63
2019-05-16T08:37:01.266Z,1011.61
2019-05-16T08:38:01.102Z,1011.57
2019-05-16T08:39:01.083Z,1011.61
2019-05-16T08:40:00.487Z,1011.56
2019-05-16T08:41:11.751Z,1011.56
2019-05-16T08:43:00.914Z,1011.53
2019-05-16T08:44:01.106Z,1011.54
2019-05-16T08:45:01.948Z,1011.55
2019-05-16T08:46:01.059Z,1011.49
2019-05-16T08:47:06.051Z,1011.47
2019-05-16T08:48:00.860Z,1011.52
2019-05-16T08:49:01.060Z,1011.49
2019-05-16T08:50:00.577Z,1011.47
2019-05-16T08:50:05.527Z,1011.57
2019-05-16T08:50:05.720Z,1011.73
2019-05-16T08:51:02.854Z,1011.47
2019-05-16T08:52:01.433Z,1011.48
2019-05-16T08:53:02.782Z,1011.43
2019-05-16T08:54:01.525Z,1011.42
2019-05-16T08:55:03.311Z,1011.41
2019-05-16T08:56:02.607Z,1011.42
2019-05-16T08:57:14.380Z,1011.43
2019-05-16T08:58:02.531Z,1011.42
2019-05-16T08:59:02.716Z,1011.44
2019-05-16T09:00:01.337Z,1011.43
2019-05-16T09:01:02.157Z,1011.43
2019-05-16T09:02:03.348Z,1011.44
2019-05-16T09:03:01.779Z,1011.43
2019-05-16T09:04:01.506Z,1011.42
2019-05-16T09:05:04.931Z,1011.43
2019-05-16T09:06:02.983Z,1011.40
2019-05-16T09:07:01.990Z,1011.38
2019-05-16T09:08:00.993Z,1011.33
2019-05-16T09:09:12.313Z,1011.32
2019-05-16T09:10:00.642Z,1011.35
2019-05-16T09:10:31.318Z,1011.72
2019-05-16T09:11:04.770Z,1011.32
2019-05-16T09:12:00.587Z,1011.32
2019-05-16T09:12:59.578Z,1011.34
2019-05-16T09:13:59.570Z,1011.32
2019-05-16T09:14:59.684Z,1011.32
2019-05-16T09:15:59.547Z,1011.37
2019-05-16T09:16:59.537Z,1011.31
2019-05-16T09:17:59.519Z,1011.31
2019-05-16T09:18:59.509Z,1011.30
2019-05-16T09:19:59.523Z,1011.31
2019-05-16T09:20:59.486Z,1011.28
2019-05-16T09:21:59.474Z,1011.29
2019-05-16T09:22:59.465Z,1011.26
2019-05-16T09:23:59.453Z,1011.26
2019-05-16T09:24:59.471Z,1011.25
2019-05-16T09:25:59.434Z,1011.22
2019-05-16T09:26:59.423Z,1011.21
2019-05-16T09:27:59.407Z,1011.22
2019-05-16T09:28:59.397Z,1011.20
2019-05-16T09:29:59.410Z,1011.20
2019-05-16T09:30:59.373Z,1011.15
2019-05-16T09:32:12.511Z,1011.13
2019-05-16T09:33:00.353Z,1011.13
2019-05-16T09:33:59.340Z,1011.21
2019-05-16T09:34:59.351Z,1011.18
2019-05-16T09:35:59.315Z,1011.18
2019-05-16T09:37:01.163Z,1011.13
2019-05-16T09:37:59.294Z,1011.18
2019-05-16T09:38:59.282Z,1011.16
2019-05-16T09:39:59.296Z,1011.19
2019-05-16T09:40:59.272Z,1011.16
2019-05-16T09:41:59.251Z,1011.14
2019-05-16T09:42:59.246Z,1011.20
2019-05-16T09:43:59.630Z,1011.13
2019-05-16T09:44:59.241Z,1011.10
2019-05-16T09:46:03.790Z,1011.07
2019-05-16T09:47:00.195Z,1011.08
2019-05-16T09:47:59.185Z,1011.03
2019-05-16T09:49:15.627Z,1011.03
2019-05-16T09:50:00.160Z,1011.06
2019-05-16T09:50:59.173Z,1011.04
2019-05-16T09:51:59.135Z,1011.09
2019-05-16T09:52:59.134Z,1011.09
2019-05-16T09:53:59.120Z,1011.10
2019-05-16T09:54:59.113Z,1011.05
2019-05-16T09:55:59.116Z,1011.06
2019-05-16T09:56:59.085Z,1011.03
2019-05-16T09:57:59.068Z,1011.04
2019-05-16T09:58:59.056Z,1011.05
2019-05-16T09:59:59.049Z,1011.00
2019-05-16T10:00:59.075Z,1010.95
2019-05-16T10:01:59.030Z,1010.95
2019-05-16T10:02:59.015Z,1010.97
2019-05-16T10:03:59.001Z,1010.93
2019-05-16T10:04:58.989Z,1010.97
2019-05-16T10:05:59.002Z,1010.91
2019-05-16T10:06:58.967Z,1010.96
2019-05-16T10:07:58.959Z,1010.85
2019-05-16T10:08:58.945Z,1010.85
2019-05-16T10:09:58.936Z,1010.81
2019-05-16T10:10:58.946Z,1010.85
2019-05-16T10:12:08.257Z,1010.81
2019-05-16T10:12:59.898Z,1010.76
2019-05-16T10:13:58.901Z,1010.76
2019-05-16T10:14:59.801Z,1010.78
2019-05-16T10:15:58.893Z,1010.79
2019-05-16T10:16:58.853Z,1010.77
2019-05-16T10:17:58.844Z,1010.76
2019-05-16T10:18:58.835Z,1010.77
2019-05-16T10:20:00.217Z,1010.75
2019-05-16T10:20:59.302Z,1010.72
2019-05-16T10:22:00.318Z,1010.73
2019-05-16T10:22:58.787Z,1010.70
2019-05-16T10:23:58.774Z,1010.71
2019-05-16T10:24:58.764Z,1010.65
2019-05-16T10:25:58.776Z,1010.67
2019-05-16T10:26:58.757Z,1010.68
2019-05-16T10:27:58.729Z,1010.70
2019-05-16T10:28:58.720Z,1010.63
2019-05-16T10:30:01.226Z,1010.63
2019-05-16T10:30:58.725Z,1010.62
2019-05-16T10:31:58.687Z,1010.60
2019-05-16T10:33:00.767Z,1010.63
2019-05-16T10:33:58.754Z,1010.59
2019-05-16T10:34:58.649Z,1010.52
2019-05-16T10:35:58.642Z,1010.53
2019-05-16T10:36:58.662Z,1010.53
2019-05-16T10:37:58.619Z,1010.49
2019-05-16T10:38:59.317Z,1010.43
2019-05-16T10:39:59.964Z,1010.46
2019-05-16T10:40:58.584Z,1010.44
2019-05-16T10:41:58.597Z,1010.49
2019-05-16T10:42:58.561Z,1010.48
2019-05-16T10:43:58.550Z,1010.47
2019-05-16T10:44:58.544Z,1010.48
2019-05-16T10:45:58.525Z,1010.47
2019-05-16T10:46:58.546Z,1010.41
2019-05-16T10:47:58.503Z,1010.40
2019-05-16T10:48:58.490Z,1010.39
2019-05-16T10:49:58.483Z,1010.39
2019-05-16T10:50:58.469Z,1010.36
2019-05-16T10:51:58.484Z,1010.32
2019-05-16T10:53:22.416Z,1010.32
2019-05-16T10:54:08.928Z,1010.29
2019-05-16T10:55:02.521Z,1010.35
2019-05-16T10:55:58.459Z,1010.36
2019-05-16T10:56:58.595Z,1010.34
2019-05-16T10:57:58.389Z,1010.29
2019-05-16T10:59:37.799Z,1010.29
2019-05-16T11:00:08.916Z,1010.26
2019-05-16T11:01:27.365Z,1010.24
2019-05-16T11:02:02.492Z,1010.30
2019-05-16T11:02:58.943Z,1010.31
2019-05-16T11:03:58.320Z,1010.28
2019-05-16T11:05:13.931Z,1010.26
2019-05-16T11:06:05.332Z,1010.26
2019-05-16T11:06:59.334Z,1010.27
2019-05-16T11:07:58.276Z,1010.23
2019-05-16T11:08:58.265Z,1010.20
2019-05-16T11:10:03.221Z,1010.25
2019-05-16T11:10:59.250Z,1010.20
2019-05-16T11:11:58.259Z,1010.23
2019-05-16T11:12:59.658Z,1010.25
2019-05-16T11:13:58.207Z,1010.24
2019-05-16T11:14:58.194Z,1010.26
2019-05-16T11:15:58.184Z,1010.23
2019-05-16T11:16:58.300Z,1010.21
2019-05-16T11:18:00.023Z,1010.24
2019-05-16T11:19:13.828Z,1010.23
2019-05-16T11:19:59.141Z,1010.21
2019-05-16T11:20:58.448Z,1010.24
2019-05-16T11:21:58.158Z,1010.08
2019-05-16T11:22:58.105Z,1010.07
2019-05-16T11:23:58.100Z,1010.01
2019-05-16T11:24:58.083Z,1010.04
2019-05-16T11:25:58.557Z,1010.07
2019-05-16T11:26:58.063Z,1010.10
2019-05-16T11:27:58.080Z,1010.08
2019-05-16T11:28:58.037Z,1010.02
2019-05-16T11:29:58.035Z,1009.99
2019-05-16T11:31:03.121Z,1010.04
2019-05-16T11:31:59.017Z,1009.98
2019-05-16T11:32:58.021Z,1009.97
2019-05-16T11:33:57.983Z,1009.90
2019-05-16T11:34:57.970Z,1009.88
2019-05-16T11:35:57.968Z,1009.86
2019-05-16T11:36:57.950Z,1009.97
2019-05-16T11:37:57.977Z,1009.95
2019-05-16T11:39:01.740Z,1009.90
2019-05-16T11:39:57.913Z,1009.85
2019-05-16T11:40:57.901Z,1009.79
2019-05-16T11:41:57.891Z,1009.77
2019-05-16T11:43:09.397Z,1009.73
2019-05-16T11:43:58.866Z,1009.75
2019-05-16T11:44:58.230Z,1009.67
2019-05-16T11:45:57.852Z,1009.73
2019-05-16T11:46:57.838Z,1009.71
2019-05-16T11:47:57.851Z,1009.68
2019-05-16T11:48:57.814Z,1009.62
2019-05-16T11:49:57.804Z,1009.60
2019-05-16T11:50:57.793Z,1009.68
2019-05-16T11:51:57.963Z,1009.62
2019-05-16T11:52:57.791Z,1009.63
2019-05-16T11:53:59.982Z,1009.64
2019-05-16T11:54:57.763Z,1009.66
2019-05-16T11:56:01.534Z,1009.61
2019-05-16T11:56:57.723Z,1009.57
2019-05-16T11:57:57.736Z,1009.60
2019-05-16T11:58:57.701Z,1009.65
2019-05-16T11:59:57.690Z,1009.56
2019-05-16T12:00:57.737Z,1009.53
2019-05-16T12:01:57.665Z,1009.60
2019-05-16T12:03:02.762Z,1009.62
2019-05-16T12:03:57.695Z,1009.52
2019-05-16T12:04:57.941Z,1009.47